Isla Nueva, Argentina
Current Conditions -  °F | °C
As of 3:00 PM on Friday 24 Oct 2014 (Local Time) from SAWH Reporting Station
Rain Showers Rain Showers  
Wind Chill: 54°   Ceiling: Unl
Heat Index: 54°   Visibility: 6mi
Dew Point: 34°   Wind: 35mph
Humidity: 47%   Direction: 230°SW
Pressure: 29.32"   Gusts: 55mph
Location:  55.25°S, 66.49°W
Report Text: SAWH 241800Z 23030G48KT 9999 VCSH SCT040SCT200 12/01 Q0993
Loading
Personal Weather Stations






























Interactive Weather Map New forecast layout! Learn more

10-Day Weather Forecast

Advertisements
Track Severe Weather on mobile